createdAt,value
2019-03-16T00:01:06.954Z,74.49
2019-03-16T00:03:34.600Z,74.95
2019-03-16T00:06:01.991Z,76.09
2019-03-16T00:08:29.455Z,75.33
2019-03-16T00:10:56.965Z,73.85
2019-03-16T00:13:24.555Z,76.15
2019-03-16T00:15:52.008Z,73.46
2019-03-16T00:18:19.442Z,72.71
2019-03-16T00:20:46.874Z,73.44
2019-03-16T00:23:14.381Z,72.84
2019-03-16T00:25:41.934Z,73.49
2019-03-16T00:28:09.419Z,72.82
2019-03-16T00:30:36.936Z,73.97
2019-03-16T00:33:04.621Z,73.42
2019-03-16T00:35:32.134Z,72.92
2019-03-16T00:38:00.223Z,72.61
2019-03-16T00:40:27.841Z,72.93
2019-03-16T00:42:55.372Z,73.07
2019-03-16T00:45:22.825Z,72.85
2019-03-16T00:47:50.935Z,72.12
2019-03-16T00:50:18.730Z,71.09
2019-03-16T00:52:46.298Z,74.18
2019-03-16T00:55:13.827Z,72.45
2019-03-16T00:57:41.413Z,71.00
2019-03-16T01:00:10.266Z,74.35
2019-03-16T01:02:38.138Z,74.67
2019-03-16T01:05:07.678Z,74.27
2019-03-16T01:07:35.253Z,71.58
2019-03-16T01:10:02.709Z,75.02
2019-03-16T01:12:30.177Z,72.65
2019-03-16T01:14:57.715Z,72.88
2019-03-16T01:17:25.214Z,73.18
2019-03-16T01:19:52.774Z,71.23
2019-03-16T01:22:20.343Z,70.64
2019-03-16T01:24:47.902Z,69.92
2019-03-16T01:27:15.359Z,71.85
2019-03-16T01:29:43.282Z,70.52
2019-03-16T01:32:10.881Z,68.88
2019-03-16T01:34:38.357Z,71.84
2019-03-16T01:37:05.884Z,69.62
2019-03-16T01:39:33.514Z,70.28
2019-03-16T01:42:01.046Z,68.83
2019-03-16T01:44:28.481Z,69.36
2019-03-16T01:46:55.980Z,67.97
2019-03-16T01:49:23.638Z,69.18
2019-03-16T01:51:51.147Z,72.07
2019-03-16T01:54:18.670Z,66.64
2019-03-16T01:56:46.161Z,66.06
2019-03-16T01:59:13.656Z,70.27
2019-03-16T02:01:41.134Z,68.25
2019-03-16T02:04:08.616Z,66.76
2019-03-16T02:06:36.084Z,67.59
2019-03-16T02:09:05.209Z,67.97
2019-03-16T02:11:32.712Z,67.54
2019-03-16T02:14:00.232Z,68.95
2019-03-16T02:16:27.621Z,68.04
2019-03-16T02:18:55.205Z,67.88
2019-03-16T02:21:22.652Z,65.50
2019-03-16T02:23:50.074Z,67.12
2019-03-16T02:26:17.578Z,66.42
2019-03-16T02:28:45.043Z,65.40
2019-03-16T02:31:12.550Z,64.35
2019-03-16T02:33:40.195Z,65.15
2019-03-16T02:36:07.754Z,66.68
2019-03-16T02:38:35.301Z,65.78
2019-03-16T02:41:04.014Z,66.08
2019-03-16T02:43:31.544Z,66.20
2019-03-16T02:45:58.998Z,64.87
2019-03-16T02:48:26.446Z,67.00
2019-03-16T02:50:54.011Z,65.52
2019-03-16T02:53:21.589Z,68.37
2019-03-16T02:55:49.133Z,64.09
2019-03-16T02:58:17.066Z,66.07
2019-03-16T03:00:44.587Z,66.18
2019-03-16T03:03:28.059Z,69.57
2019-03-16T03:05:41.621Z,66.04
2019-03-16T03:08:09.180Z,65.35
2019-03-16T03:10:36.669Z,66.27
2019-03-16T03:13:04.305Z,66.16
2019-03-16T03:15:31.893Z,68.17
2019-03-16T03:17:59.389Z,65.55
2019-03-16T03:20:26.834Z,64.60
2019-03-16T03:22:54.239Z,65.28
2019-03-16T03:25:21.712Z,64.70
2019-03-16T03:27:49.179Z,65.05
2019-03-16T03:30:16.816Z,66.81
2019-03-16T03:32:44.411Z,67.13
2019-03-16T03:35:12.046Z,64.28
2019-03-16T03:37:39.586Z,65.12
2019-03-16T03:40:07.257Z,64.63
2019-03-16T03:42:35.007Z,65.93
2019-03-16T03:45:02.801Z,64.18
2019-03-16T03:47:30.228Z,65.88
2019-03-16T03:49:57.729Z,64.66
2019-03-16T03:52:26.704Z,63.66
2019-03-16T03:54:54.487Z,64.29
2019-03-16T03:57:22.125Z,65.03
2019-03-16T03:59:49.579Z,64.28
2019-03-16T04:02:17.145Z,65.16
2019-03-16T04:04:44.790Z,64.63
2019-03-16T04:07:12.295Z,67.11
2019-03-16T04:09:40.060Z,66.49
2019-03-16T04:12:07.774Z,65.79
2019-03-16T04:14:35.284Z,64.45
2019-03-16T04:17:02.873Z,65.92
2019-03-16T04:19:30.358Z,66.14
2019-03-16T04:21:58.368Z,66.42
2019-03-16T04:24:26.588Z,67.78
2019-03-16T04:26:54.547Z,66.15
2019-03-16T04:29:23.325Z,67.59
2019-03-16T04:31:52.282Z,68.27
2019-03-16T04:34:29.276Z,67.44
2019-03-16T04:36:49.633Z,65.97
2019-03-16T04:39:17.698Z,65.36
2019-03-16T04:41:45.230Z,65.92
2019-03-16T04:44:13.674Z,65.71
2019-03-16T04:46:42.804Z,66.61
2019-03-16T04:49:10.345Z,64.79
2019-03-16T04:51:37.891Z,68.71
2019-03-16T04:54:05.866Z,65.12
2019-03-16T04:56:33.505Z,65.61
2019-03-16T04:59:00.933Z,64.65
2019-03-16T05:01:28.970Z,64.56
2019-03-16T05:03:57.064Z,65.45
2019-03-16T05:06:24.476Z,66.71
2019-03-16T05:08:51.942Z,69.01
2019-03-16T05:11:19.421Z,65.84
2019-03-16T05:13:46.908Z,64.87
2019-03-16T05:16:14.405Z,65.43
2019-03-16T05:18:42.054Z,67.52
2019-03-16T05:21:09.545Z,69.97
2019-03-16T05:23:37.868Z,66.48
2019-03-16T05:26:05.944Z,66.39
2019-03-16T05:28:33.372Z,66.00
2019-03-16T05:31:00.861Z,64.36
2019-03-16T05:33:28.886Z,66.82
2019-03-16T05:35:56.592Z,63.78
2019-03-16T05:38:24.104Z,63.43
2019-03-16T05:40:51.737Z,62.68
2019-03-16T05:43:19.349Z,61.63
2019-03-16T05:45:47.011Z,61.59
2019-03-16T05:48:14.526Z,62.47
2019-03-16T05:50:42.145Z,63.26
2019-03-16T05:53:09.684Z,63.96
2019-03-16T05:55:37.212Z,63.89
2019-03-16T05:58:04.814Z,64.36
2019-03-16T06:00:32.356Z,64.43
2019-03-16T06:02:59.785Z,64.80
2019-03-16T06:05:28.495Z,65.32
2019-03-16T06:07:55.984Z,66.38
2019-03-16T06:10:23.535Z,66.46
2019-03-16T06:12:50.936Z,66.37
2019-03-16T06:15:18.480Z,67.35
2019-03-16T06:17:46.152Z,66.53
2019-03-16T06:20:13.929Z,65.22
2019-03-16T06:22:43.364Z,64.30
2019-03-16T06:25:11.493Z,65.17
2019-03-16T06:27:41.037Z,63.74
2019-03-16T06:30:08.884Z,63.26
2019-03-16T06:32:36.394Z,63.71
2019-03-16T06:35:04.221Z,63.74
2019-03-16T06:37:31.812Z,62.98
2019-03-16T06:39:59.428Z,62.88
2019-03-16T06:42:27.104Z,63.61
2019-03-16T06:44:54.663Z,61.45
2019-03-16T06:47:23.278Z,62.15
2019-03-16T06:49:50.930Z,63.07
2019-03-16T06:52:18.514Z,61.44
2019-03-16T06:54:47.496Z,60.02
2019-03-16T06:57:15.284Z,59.36
2019-03-16T06:59:43.230Z,60.25
2019-03-16T07:02:10.749Z,59.04
2019-03-16T07:04:39.921Z,57.25
2019-03-16T07:07:08.073Z,57.67
2019-03-16T07:09:35.738Z,55.20
2019-03-16T07:12:03.316Z,52.47
2019-03-16T07:14:30.981Z,50.71
2019-03-16T07:17:02.357Z,51.04
2019-03-16T07:19:29.359Z,50.93
2019-03-16T07:21:56.993Z,49.34
2019-03-16T07:24:24.691Z,49.51
2019-03-16T07:26:52.293Z,48.96
2019-03-16T07:29:19.919Z,48.44
2019-03-16T07:31:47.744Z,50.55
2019-03-16T07:34:15.387Z,46.96
2019-03-16T07:36:43.222Z,47.47
2019-03-16T07:39:12.726Z,47.04
2019-03-16T07:41:40.356Z,48.46
2019-03-16T07:44:08.083Z,50.04
2019-03-16T07:46:35.950Z,50.87
2019-03-16T07:49:06.060Z,51.44
2019-03-16T07:51:34.019Z,51.53
2019-03-16T07:54:05.093Z,52.63
2019-03-16T07:56:32.678Z,52.01
2019-03-16T07:59:00.234Z,52.10
2019-03-16T08:01:27.713Z,51.41
2019-03-16T08:03:55.262Z,50.86
2019-03-16T08:06:22.687Z,50.51
2019-03-16T08:08:50.206Z,50.46
2019-03-16T08:11:18.404Z,50.57
2019-03-16T08:13:45.889Z,50.57
2019-03-16T08:16:13.589Z,50.28
2019-03-16T08:18:42.234Z,49.31
2019-03-16T08:21:12.577Z,48.29
2019-03-16T08:23:40.500Z,48.83
2019-03-16T08:26:08.364Z,47.36
2019-03-16T08:28:36.491Z,47.09
2019-03-16T08:31:05.273Z,46.85
2019-03-16T08:33:32.712Z,46.77
2019-03-16T08:36:00.780Z,46.42
2019-03-16T08:38:30.382Z,46.12
2019-03-16T08:40:58.303Z,45.86
2019-03-16T08:43:27.245Z,45.66
2019-03-16T08:45:54.704Z,45.59
2019-03-16T08:48:23.397Z,44.53
2019-03-16T08:50:51.048Z,44.03
2019-03-16T08:53:18.630Z,43.71
2019-03-16T08:55:49.160Z,43.58
2019-03-16T08:58:16.745Z,43.72
2019-03-16T09:00:44.250Z,41.95
2019-03-16T09:03:11.892Z,41.96
2019-03-16T09:05:39.376Z,42.99
2019-03-16T09:08:06.924Z,41.80
2019-03-16T09:10:34.405Z,41.99
2019-03-16T09:13:03.233Z,42.21
2019-03-16T09:15:31.230Z,41.78
2019-03-16T09:17:58.707Z,40.95
2019-03-16T09:20:26.096Z,41.14
2019-03-16T09:22:53.719Z,40.88
2019-03-16T09:25:21.218Z,39.66
2019-03-16T09:27:50.006Z,39.48
2019-03-16T09:30:17.507Z,39.56
2019-03-16T09:32:49.662Z,39.42
2019-03-16T09:35:17.125Z,39.41
2019-03-16T09:37:44.656Z,38.81
2019-03-16T09:40:12.588Z,39.34
2019-03-16T09:42:40.188Z,39.09
2019-03-16T09:45:08.720Z,39.17
2019-03-16T09:47:38.782Z,39.15
2019-03-16T09:50:07.654Z,39.48
2019-03-16T09:52:36.351Z,39.15
2019-03-16T09:55:04.200Z,38.67
2019-03-16T09:57:33.128Z,38.24
2019-03-16T10:00:02.623Z,37.90
2019-03-16T10:02:30.168Z,37.92
2019-03-16T10:04:58.780Z,38.08
2019-03-16T10:07:26.683Z,37.80
2019-03-16T10:09:54.226Z,37.38
2019-03-16T10:12:21.945Z,37.39
2019-03-16T10:14:49.538Z,37.12
2019-03-16T10:17:17.204Z,36.93
2019-03-16T10:19:44.835Z,36.09
2019-03-16T10:22:14.080Z,35.38
2019-03-16T10:24:41.677Z,34.81
2019-03-16T10:27:09.216Z,33.91
2019-03-16T10:29:36.733Z,33.90
2019-03-16T10:32:05.147Z,32.92
2019-03-16T10:34:32.652Z,33.22
2019-03-16T10:37:00.372Z,33.19
2019-03-16T10:39:27.976Z,33.19
2019-03-16T10:41:55.658Z,33.07
2019-03-16T10:44:23.162Z,32.61
2019-03-16T10:46:51.662Z,32.31
2019-03-16T10:49:20.679Z,31.62
2019-03-16T10:51:48.688Z,31.67
2019-03-16T10:54:17.055Z,30.95
2019-03-16T10:56:44.843Z,30.68
2019-03-16T10:59:12.443Z,30.19
2019-03-16T11:01:40.998Z,30.78
2019-03-16T11:04:09.796Z,31.20
2019-03-16T11:06:38.890Z,31.01
2019-03-16T11:09:06.788Z,30.13
2019-03-16T11:11:34.446Z,29.94
2019-03-16T11:14:02.056Z,29.61
2019-03-16T11:16:29.634Z,30.23
2019-03-16T11:18:59.258Z,31.34
2019-03-16T11:21:28.074Z,31.31
2019-03-16T11:23:56.052Z,30.49
2019-03-16T11:26:23.712Z,30.78
2019-03-16T11:29:04.504Z,31.34
2019-03-16T11:31:25.392Z,30.36
2019-03-16T11:33:53.050Z,29.97
2019-03-16T11:36:20.923Z,29.86
2019-03-16T11:38:50.680Z,29.80
2019-03-16T11:41:18.246Z,29.61
2019-03-16T11:43:46.168Z,30.26
2019-03-16T11:46:15.327Z,31.11
2019-03-16T11:48:43.532Z,30.32
2019-03-16T11:51:10.972Z,30.29
2019-03-16T11:53:38.531Z,30.13
2019-03-16T11:56:17.869Z,30.01
2019-03-16T11:58:38.318Z,29.07
2019-03-16T12:01:05.868Z,28.86
2019-03-16T12:03:33.607Z,29.33
2019-03-16T12:06:01.178Z,29.31
2019-03-16T12:08:28.879Z,29.44
2019-03-16T12:10:56.891Z,29.49
2019-03-16T12:13:28.914Z,29.59
2019-03-16T12:15:56.522Z,29.69
2019-03-16T12:18:24.062Z,29.64
2019-03-16T12:20:51.562Z,30.07
2019-03-16T12:23:19.104Z,29.29
2019-03-16T12:25:46.899Z,28.73
2019-03-16T12:28:14.374Z,28.79
2019-03-16T12:30:53.813Z,27.97
2019-03-16T12:33:21.548Z,27.65
2019-03-16T12:35:51.255Z,28.16
2019-03-16T12:38:19.733Z,28.39
2019-03-16T12:40:47.334Z,28.94
2019-03-16T12:43:16.540Z,28.66
2019-03-16T12:45:44.212Z,28.59
2019-03-16T12:48:12.725Z,28.72
2019-03-16T12:50:40.339Z,28.63
2019-03-16T12:53:10.108Z,30.49
2019-03-16T12:55:37.718Z,30.76
2019-03-16T12:58:06.145Z,31.11
2019-03-16T13:00:35.502Z,31.29
2019-03-16T13:03:02.995Z,31.51
2019-03-16T13:05:30.548Z,31.35
2019-03-16T13:07:58.020Z,31.60
2019-03-16T13:10:25.612Z,32.00
2019-03-16T13:12:53.539Z,32.03
2019-03-16T13:15:21.103Z,32.24
2019-03-16T13:17:48.522Z,32.53
2019-03-16T13:20:16.863Z,32.09
2019-03-16T13:22:45.029Z,31.31
2019-03-16T13:25:13.658Z,30.51
2019-03-16T13:27:41.397Z,29.81
2019-03-16T13:30:10.842Z,29.79
2019-03-16T13:32:39.240Z,29.64
2019-03-16T13:35:07.684Z,30.25
2019-03-16T13:37:36.927Z,30.77
2019-03-16T13:40:05.388Z,31.11
2019-03-16T13:42:33.579Z,31.23
2019-03-16T13:45:01.150Z,31.36
2019-03-16T13:47:28.735Z,31.47
2019-03-16T13:49:56.701Z,31.42
2019-03-16T13:52:24.210Z,31.34
2019-03-16T13:54:51.753Z,31.69
2019-03-16T13:57:19.454Z,31.24
2019-03-16T13:59:46.991Z,31.08
2019-03-16T14:02:14.468Z,31.58
2019-03-16T14:04:42.454Z,31.67
2019-03-16T14:07:09.988Z,31.48
2019-03-16T14:09:37.489Z,31.39
2019-03-16T14:12:05.407Z,30.95
2019-03-16T14:14:32.876Z,31.06
2019-03-16T14:17:00.275Z,31.08
2019-03-16T14:19:27.744Z,31.27
2019-03-16T14:21:55.488Z,31.16
2019-03-16T14:24:23.412Z,31.19
2019-03-16T14:26:51.307Z,31.80
2019-03-16T14:29:18.815Z,32.10
2019-03-16T14:31:46.292Z,32.10
2019-03-16T14:34:13.777Z,32.11
2019-03-16T14:36:41.338Z,32.51
2019-03-16T14:39:08.861Z,32.62
2019-03-16T14:41:36.455Z,32.82
2019-03-16T14:44:04.427Z,32.52
2019-03-16T14:46:33.025Z,32.67
2019-03-16T14:49:00.522Z,32.66
2019-03-16T14:51:28.084Z,32.83
2019-03-16T14:53:56.822Z,32.91
2019-03-16T14:56:24.324Z,32.77
2019-03-16T14:58:51.786Z,32.95
2019-03-16T15:01:19.369Z,32.75
2019-03-16T15:03:46.906Z,32.90
2019-03-16T15:06:14.490Z,32.86
2019-03-16T15:08:41.924Z,32.65
2019-03-16T15:11:09.481Z,32.78
2019-03-16T15:13:36.983Z,33.00
2019-03-16T15:16:04.438Z,33.00
2019-03-16T15:18:31.981Z,32.96
2019-03-16T15:20:59.521Z,32.79
2019-03-16T15:23:27.133Z,32.84
2019-03-16T15:25:54.784Z,32.87
2019-03-16T15:28:22.320Z,32.83
2019-03-16T15:30:51.061Z,33.10
2019-03-16T15:33:18.746Z,33.07
2019-03-16T15:35:46.289Z,33.22
2019-03-16T15:38:13.782Z,33.13
2019-03-16T15:40:41.228Z,33.33
2019-03-16T15:43:08.703Z,33.37
2019-03-16T15:45:36.220Z,33.28
2019-03-16T15:48:03.921Z,33.46
2019-03-16T15:50:31.460Z,33.63
2019-03-16T15:52:59.019Z,33.85
2019-03-16T15:55:26.619Z,33.83
2019-03-16T15:58:06.999Z,33.73
2019-03-16T16:00:23.755Z,33.36
2019-03-16T16:02:51.285Z,33.38
2019-03-16T16:05:18.804Z,33.64
2019-03-16T16:07:46.309Z,33.80
2019-03-16T16:10:13.879Z,33.87
2019-03-16T16:12:41.507Z,34.00
2019-03-16T16:15:09.228Z,34.25
2019-03-16T16:17:36.606Z,34.57
2019-03-16T16:20:04.622Z,34.53
2019-03-16T16:22:33.093Z,34.48
2019-03-16T16:25:00.673Z,34.52
2019-03-16T16:27:29.312Z,34.33
2019-03-16T16:29:56.867Z,34.39
2019-03-16T16:32:24.363Z,34.03
2019-03-16T16:34:52.337Z,33.58
2019-03-16T16:37:19.905Z,33.44
2019-03-16T16:39:47.605Z,33.48
2019-03-16T16:42:15.057Z,33.46
2019-03-16T16:44:42.705Z,33.39
2019-03-16T16:47:10.223Z,33.29
2019-03-16T16:49:37.886Z,33.14
2019-03-16T16:52:06.512Z,33.19
2019-03-16T16:54:37.591Z,33.37
2019-03-16T16:57:04.389Z,32.92
2019-03-16T16:59:37.332Z,32.93
2019-03-16T17:02:05.403Z,33.02
2019-03-16T17:04:32.921Z,32.82
2019-03-16T17:07:00.438Z,32.79
2019-03-16T17:09:27.893Z,33.03
2019-03-16T17:11:55.365Z,33.14
2019-03-16T17:14:22.786Z,33.02
2019-03-16T17:16:50.351Z,33.15
2019-03-16T17:19:18.134Z,33.34
2019-03-16T17:21:45.685Z,33.78
2019-03-16T17:24:13.174Z,33.95
2019-03-16T17:26:40.754Z,33.90
2019-03-16T17:29:08.202Z,33.35
2019-03-16T17:31:42.185Z,33.52
2019-03-16T17:34:05.118Z,33.42
2019-03-16T17:36:32.631Z,33.41
2019-03-16T17:39:00.067Z,33.31
2019-03-16T17:41:27.576Z,33.43
2019-03-16T17:43:55.261Z,33.41
2019-03-16T17:46:22.759Z,33.65
2019-03-16T17:48:50.198Z,33.66
2019-03-16T17:51:17.953Z,34.03
2019-03-16T17:53:46.969Z,34.40
2019-03-16T17:56:14.691Z,34.09
2019-03-16T17:58:42.327Z,34.12
2019-03-16T18:01:09.843Z,34.07
2019-03-16T18:03:37.746Z,34.26
2019-03-16T18:06:06.140Z,34.70
2019-03-16T18:08:33.623Z,34.85
2019-03-16T18:11:01.171Z,34.79
2019-03-16T18:13:28.639Z,35.00
2019-03-16T18:15:56.176Z,35.52
2019-03-16T18:18:23.648Z,35.96
2019-03-16T18:20:51.202Z,35.90
2019-03-16T18:23:19.103Z,36.25
2019-03-16T18:25:47.633Z,36.40
2019-03-16T18:28:15.188Z,36.80
2019-03-16T18:30:44.502Z,37.59
2019-03-16T18:33:12.113Z,38.65
2019-03-16T18:35:39.609Z,39.39
2019-03-16T18:38:07.034Z,39.79
2019-03-16T18:40:34.522Z,40.29
2019-03-16T18:43:02.022Z,40.34
2019-03-16T18:45:29.480Z,40.61
2019-03-16T18:47:57.037Z,40.89
2019-03-16T18:50:25.110Z,41.01
2019-03-16T18:52:52.730Z,41.10
2019-03-16T18:55:20.306Z,41.34
2019-03-16T18:57:47.820Z,41.41
2019-03-16T19:00:15.456Z,41.04
2019-03-16T19:02:43.398Z,41.40
2019-03-16T19:05:11.569Z,41.45
2019-03-16T19:07:39.514Z,41.64
2019-03-16T19:10:08.596Z,42.02
2019-03-16T19:12:36.780Z,42.57
2019-03-16T19:15:05.593Z,42.71
2019-03-16T19:17:34.128Z,42.50
2019-03-16T19:20:02.367Z,42.49
2019-03-16T19:22:29.948Z,42.43
2019-03-16T19:24:57.361Z,42.22
2019-03-16T19:27:25.181Z,42.18
2019-03-16T19:29:53.073Z,42.46
2019-03-16T19:32:32.996Z,42.70
2019-03-16T19:34:51.443Z,42.66
2019-03-16T19:37:21.250Z,42.68
2019-03-16T19:39:50.120Z,42.52
2019-03-16T19:42:18.469Z,42.81
2019-03-16T19:44:46.707Z,42.84
2019-03-16T19:47:14.379Z,42.64
2019-03-16T19:49:41.958Z,42.64
2019-03-16T19:52:09.433Z,42.42
2019-03-16T19:54:37.051Z,42.86
2019-03-16T19:57:15.286Z,43.02
2019-03-16T19:59:34.016Z,43.12
2019-03-16T20:02:01.460Z,43.44
2019-03-16T20:04:35.973Z,43.56
2019-03-16T20:06:58.369Z,43.93
2019-03-16T20:09:25.811Z,44.13
2019-03-16T20:11:53.215Z,44.35
2019-03-16T20:14:20.667Z,44.42
2019-03-16T20:16:48.159Z,44.44
2019-03-16T20:19:15.548Z,44.53
2019-03-16T20:21:43.294Z,44.35
2019-03-16T20:24:10.827Z,44.29
2019-03-16T20:26:38.342Z,44.23
2019-03-16T20:29:07.886Z,44.29
2019-03-16T20:31:46.448Z,44.55
2019-03-16T20:34:04.612Z,44.56
2019-03-16T20:36:32.118Z,44.73
2019-03-16T20:38:59.501Z,44.84
2019-03-16T20:41:36.163Z,44.98
2019-03-16T20:43:56.492Z,45.26
2019-03-16T20:46:24.043Z,45.54
2019-03-16T20:48:51.479Z,45.96
2019-03-16T20:51:19.023Z,46.19
2019-03-16T20:53:46.573Z,46.47
2019-03-16T20:56:14.101Z,46.80
2019-03-16T20:58:41.533Z,47.16
2019-03-16T21:01:09.056Z,47.59
2019-03-16T21:03:36.688Z,48.17
2019-03-16T21:06:04.322Z,48.51
2019-03-16T21:08:31.850Z,48.91
2019-03-16T21:10:59.320Z,49.17
2019-03-16T21:13:26.802Z,49.45
2019-03-16T21:15:54.231Z,49.67
2019-03-16T21:18:21.634Z,49.87
2019-03-16T21:20:49.289Z,50.31
2019-03-16T21:23:16.815Z,50.54
2019-03-16T21:25:44.307Z,50.78
2019-03-16T21:28:11.706Z,51.00
2019-03-16T21:30:39.722Z,51.33
2019-03-16T21:33:07.230Z,51.76
2019-03-16T21:35:34.816Z,52.12
2019-03-16T21:38:02.438Z,52.52
2019-03-16T21:40:29.920Z,52.91
2019-03-16T21:42:57.403Z,53.25
2019-03-16T21:45:25.126Z,53.57
2019-03-16T21:47:59.869Z,54.01
2019-03-16T21:50:22.040Z,54.44
2019-03-16T21:52:50.057Z,55.22
2019-03-16T21:55:17.612Z,56.22
2019-03-16T21:57:45.065Z,56.86
2019-03-16T22:00:13.038Z,57.41
2019-03-16T22:02:40.574Z,57.92
2019-03-16T22:05:08.497Z,58.07
2019-03-16T22:07:36.065Z,58.01
2019-03-16T22:10:05.615Z,58.07
2019-03-16T22:12:33.083Z,58.08
2019-03-16T22:15:00.793Z,58.47
2019-03-16T22:17:28.244Z,58.39
2019-03-16T22:19:55.709Z,58.69
2019-03-16T22:22:23.193Z,59.08
2019-03-16T22:24:50.662Z,59.47
2019-03-16T22:27:18.160Z,60.04
2019-03-16T22:29:45.678Z,60.34
2019-03-16T22:32:13.136Z,59.52
2019-03-16T22:34:40.626Z,59.32
2019-03-16T22:37:08.140Z,59.06
2019-03-16T22:39:35.588Z,59.10
2019-03-16T22:42:03.192Z,59.40
2019-03-16T22:44:33.138Z,60.00
2019-03-16T22:47:00.562Z,60.03
2019-03-16T22:49:27.978Z,59.99
2019-03-16T22:51:56.645Z,60.56
2019-03-16T22:54:24.385Z,60.81
2019-03-16T22:56:51.823Z,60.14
2019-03-16T22:59:19.320Z,60.18
2019-03-16T23:01:46.801Z,59.90
2019-03-16T23:04:14.264Z,58.71
2019-03-16T23:06:41.726Z,58.55
2019-03-16T23:09:09.234Z,58.42
2019-03-16T23:11:36.715Z,58.44
2019-03-16T23:14:04.310Z,58.55
2019-03-16T23:16:31.820Z,58.03
2019-03-16T23:18:59.277Z,58.84
2019-03-16T23:21:26.749Z,58.91
2019-03-16T23:23:54.187Z,59.31
2019-03-16T23:26:21.667Z,59.88
2019-03-16T23:28:49.179Z,60.39
2019-03-16T23:31:16.683Z,61.39
2019-03-16T23:33:44.160Z,61.03
2019-03-16T23:36:11.645Z,61.14
2019-03-16T23:38:39.121Z,60.85
2019-03-16T23:41:06.557Z,61.05
2019-03-16T23:43:34.035Z,60.22
2019-03-16T23:46:01.583Z,60.04
2019-03-16T23:48:28.999Z,60.10
2019-03-16T23:50:56.456Z,60.48
2019-03-16T23:53:23.951Z,60.15
2019-03-16T23:55:51.679Z,60.32
2019-03-16T23:58:19.198Z,60.29
